< < Back
Terminal Aerodrome Forecast


Current Version              Previous Versions:   1  2  3  4  5  6  7  8  9  

Terminal Aerodrome Forecast

966
FTAK31 PAJN 250500 CCA
TAFAGS
TAF COR
PAGS 250534Z 2506/2606 19005KT 6SM -SHRA SCT008 OVC060
      TEMPO 2506/2510 BKN008 BKN045 OVC060
     FM251400 09004KT 6SM -SHRA BKN025 OVC035
     FM252200 06007KT 6SM -RA BR SCT020 BKN040 OVC060
     FM260100 34006KT P6SM -RA BKN025 OVC040
      AMD NOT SKED=



Latest METAR

630
SAUS70 KWBC 251300 RRC
MTRAGS
METAR KAGS 251253Z 26004KT 10SM CLR 27/22 A3001 RMK AO2 SLP160
T02670222


USA.gov is the U.S. government's official web portal to all federal, state and local government web resources and services.